createdAt,value
2019-03-01T00:02:07.805Z,5.78
2019-03-01T00:05:01.861Z,5.61
2019-03-01T00:08:10.587Z,5.62
2019-03-01T00:10:47.740Z,5.68
2019-03-01T00:13:25.236Z,5.69
2019-03-01T00:16:20.608Z,5.45
2019-03-01T00:19:07.195Z,5.68
2019-03-01T00:21:41.695Z,5.59
2019-03-01T00:24:41.893Z,5.72
2019-03-01T00:27:25.132Z,5.50
2019-03-01T00:30:32.861Z,5.77
2019-03-01T00:33:10.008Z,5.46
2019-03-01T00:35:44.453Z,5.43
2019-03-01T00:38:18.965Z,5.23
2019-03-01T00:41:09.641Z,5.31
2019-03-01T00:43:55.383Z,5.32
2019-03-01T00:46:26.705Z,5.22
2019-03-01T00:48:58.023Z,5.16
2019-03-01T00:51:29.425Z,5.14
2019-03-01T00:54:00.745Z,5.26
2019-03-01T00:56:32.129Z,5.28
2019-03-01T00:59:03.470Z,5.31
2019-03-01T01:01:34.789Z,5.29
2019-03-01T01:04:06.139Z,5.40
2019-03-01T01:06:37.488Z,5.33
2019-03-01T01:09:08.861Z,5.54
2019-03-01T01:11:40.234Z,5.45
2019-03-01T01:14:11.506Z,5.40
2019-03-01T01:16:42.810Z,5.40
2019-03-01T01:19:14.139Z,5.33
2019-03-01T01:21:45.452Z,5.24
2019-03-01T01:24:16.823Z,5.53
2019-03-01T01:26:48.301Z,5.57
2019-03-01T01:29:19.667Z,5.45
2019-03-01T01:31:50.991Z,5.14
2019-03-01T01:34:22.426Z,5.35
2019-03-01T01:36:53.766Z,5.46
2019-03-01T01:39:25.122Z,5.42
2019-03-01T01:41:56.577Z,5.54
2019-03-01T01:44:28.064Z,5.47
2019-03-01T01:46:59.411Z,5.20
2019-03-01T01:49:30.819Z,5.15
2019-03-01T01:52:02.165Z,5.36
2019-03-01T01:54:33.521Z,5.20
2019-03-01T01:57:04.819Z,5.44
2019-03-01T01:59:36.073Z,5.40
2019-03-01T02:02:07.441Z,5.33
2019-03-01T02:04:38.759Z,5.29
2019-03-01T02:07:10.130Z,5.58
2019-03-01T02:09:41.521Z,5.38
2019-03-01T02:12:12.917Z,5.03
2019-03-01T02:14:44.290Z,5.13
2019-03-01T02:17:15.653Z,5.27
2019-03-01T02:19:47.035Z,5.20
2019-03-01T02:22:18.347Z,5.18
2019-03-01T02:24:49.713Z,5.26
2019-03-01T02:27:28.942Z,5.11
2019-03-01T02:30:00.533Z,5.31
2019-03-01T02:32:36.525Z,4.99
2019-03-01T02:35:10.689Z,4.88
2019-03-01T02:37:42.003Z,4.88
2019-03-01T02:40:15.032Z,4.71
2019-03-01T02:42:46.427Z,4.71
2019-03-01T02:45:19.507Z,4.71
2019-03-01T02:47:50.877Z,4.63
2019-03-01T02:50:22.299Z,4.58
2019-03-01T02:52:53.678Z,4.72
2019-03-01T02:55:25.086Z,4.51
2019-03-01T02:57:56.461Z,4.57
2019-03-01T03:00:29.491Z,4.55
2019-03-01T03:03:00.871Z,4.48
2019-03-01T03:05:33.876Z,4.25
2019-03-01T03:08:06.767Z,4.44
2019-03-01T03:10:38.205Z,4.44
2019-03-01T03:13:10.955Z,4.48
2019-03-01T03:15:43.909Z,4.61
2019-03-01T03:18:15.281Z,4.72
2019-03-01T03:20:46.661Z,4.59
2019-03-01T03:23:17.997Z,4.59
2019-03-01T03:25:49.398Z,4.56
2019-03-01T03:28:20.771Z,4.74
2019-03-01T03:30:52.161Z,4.71
2019-03-01T03:33:23.554Z,4.83
2019-03-01T03:35:56.281Z,4.79
2019-03-01T03:38:27.671Z,4.71
2019-03-01T03:41:00.690Z,4.77
2019-03-01T03:43:31.922Z,4.78
2019-03-01T03:46:03.192Z,4.58
2019-03-01T03:48:36.234Z,4.52
2019-03-01T03:51:07.686Z,4.57
2019-03-01T03:53:38.933Z,4.51
2019-03-01T03:56:10.286Z,4.48
2019-03-01T03:58:41.700Z,4.58
2019-03-01T04:01:13.150Z,4.58
2019-03-01T04:03:44.513Z,4.47
2019-03-01T04:06:15.920Z,4.35
2019-03-01T04:08:47.330Z,4.24
2019-03-01T04:11:18.671Z,4.09
2019-03-01T04:13:50.086Z,4.11
2019-03-01T04:16:21.518Z,4.10
2019-03-01T04:18:52.835Z,4.15
2019-03-01T04:21:24.264Z,4.13
2019-03-01T04:23:55.794Z,4.06
2019-03-01T04:26:28.182Z,3.95
2019-03-01T04:28:59.547Z,3.96
2019-03-01T04:31:30.946Z,4.11
2019-03-01T04:34:02.210Z,4.13
2019-03-01T04:36:33.557Z,3.96
2019-03-01T04:39:06.169Z,3.89
2019-03-01T04:41:39.195Z,4.01
2019-03-01T04:44:10.574Z,3.96
2019-03-01T04:46:42.002Z,3.93
2019-03-01T04:49:13.345Z,4.01
2019-03-01T04:51:44.741Z,4.24
2019-03-01T04:54:16.146Z,4.03
2019-03-01T04:56:47.787Z,4.13
2019-03-01T04:59:19.179Z,4.12
2019-03-01T05:01:50.566Z,4.08
2019-03-01T05:04:21.911Z,4.11
2019-03-01T05:06:53.323Z,4.41
2019-03-01T05:09:24.646Z,4.24
2019-03-01T05:11:56.014Z,4.16
2019-03-01T05:14:27.362Z,4.34
2019-03-01T05:16:58.634Z,4.30
2019-03-01T05:19:30.120Z,4.43
2019-03-01T05:22:01.429Z,4.35
2019-03-01T05:24:32.818Z,4.53
2019-03-01T05:27:04.209Z,4.51
2019-03-01T05:29:35.577Z,4.56
2019-03-01T05:32:06.904Z,4.46
2019-03-01T05:34:38.352Z,4.53
2019-03-01T05:37:09.670Z,4.68
2019-03-01T05:39:41.005Z,4.85
2019-03-01T05:42:13.000Z,4.63
2019-03-01T05:44:43.742Z,4.60
2019-03-01T05:47:14.786Z,4.80
2019-03-01T05:49:46.172Z,4.74
2019-03-01T05:52:17.564Z,4.74
2019-03-01T05:54:48.906Z,4.75
2019-03-01T05:57:20.240Z,4.63
2019-03-01T05:59:51.599Z,4.95
2019-03-01T06:02:26.161Z,4.81
2019-03-01T06:04:59.106Z,4.71
2019-03-01T06:07:36.359Z,4.75
2019-03-01T06:10:10.792Z,4.85
2019-03-01T06:13:03.189Z,5.09
2019-03-01T06:15:58.887Z,4.94
2019-03-01T06:18:39.134Z,4.80
2019-03-01T06:21:22.713Z,5.11
2019-03-01T06:24:18.287Z,5.04
2019-03-01T06:27:01.496Z,5.19
2019-03-01T06:29:35.991Z,5.21
2019-03-01T06:32:29.969Z,5.18
2019-03-01T06:35:23.005Z,4.73
2019-03-01T06:38:47.200Z,4.87
2019-03-01T06:41:31.587Z,4.71
2019-03-01T06:44:15.342Z,4.71
2019-03-01T06:46:54.204Z,4.75
2019-03-01T06:49:27.220Z,5.03
2019-03-01T06:51:58.556Z,5.19
2019-03-01T06:54:30.563Z,5.39
2019-03-01T06:57:01.298Z,4.84
2019-03-01T06:59:32.379Z,5.11
2019-03-01T07:02:03.765Z,5.26
2019-03-01T07:04:35.186Z,5.19
2019-03-01T07:07:06.569Z,5.27
2019-03-01T07:09:37.898Z,5.18
2019-03-01T07:12:09.417Z,5.11
2019-03-01T07:14:40.767Z,5.17
2019-03-01T07:17:12.106Z,5.18
2019-03-01T07:19:43.487Z,5.32
2019-03-01T07:22:15.800Z,5.44
2019-03-01T07:24:47.144Z,5.32
2019-03-01T07:27:19.700Z,5.76
2019-03-01T07:29:51.588Z,5.91
2019-03-01T07:32:22.974Z,5.88
2019-03-01T07:34:54.413Z,6.04
2019-03-01T07:37:25.736Z,6.31
2019-03-01T07:39:59.120Z,5.96
2019-03-01T07:45:35.700Z,5.97
2019-03-01T07:48:07.048Z,5.48
2019-03-01T07:50:38.236Z,5.58
2019-03-01T07:53:09.440Z,5.51
2019-03-01T07:55:40.651Z,5.51
2019-03-01T07:58:11.884Z,5.84
2019-03-01T08:00:43.295Z,5.61
2019-03-01T08:03:15.158Z,5.66
2019-03-01T08:05:47.556Z,5.46
2019-03-01T08:08:18.929Z,5.71
2019-03-01T08:10:53.500Z,5.63
2019-03-01T08:13:23.378Z,5.40
2019-03-01T08:15:54.782Z,5.53
2019-03-01T08:18:26.258Z,5.32
2019-03-01T08:20:57.797Z,5.62
2019-03-01T08:23:31.751Z,6.04
2019-03-01T08:26:03.522Z,6.11
2019-03-01T08:28:35.193Z,6.21
2019-03-01T08:31:06.578Z,5.80
2019-03-01T08:33:42.349Z,5.71
2019-03-01T08:36:10.981Z,6.11
2019-03-01T08:38:42.247Z,5.96
2019-03-01T08:41:13.667Z,6.01
2019-03-01T08:43:48.112Z,5.84
2019-03-01T08:46:18.065Z,5.63
2019-03-01T08:48:49.439Z,5.62
2019-03-01T08:51:22.650Z,5.67
2019-03-01T08:53:53.781Z,5.91
2019-03-01T08:56:26.392Z,6.29
2019-03-01T08:58:59.204Z,6.30
2019-03-01T09:01:31.780Z,6.32
2019-03-01T09:04:14.114Z,6.48
2019-03-01T09:06:43.442Z,6.81
2019-03-01T09:09:17.548Z,6.59
2019-03-01T09:11:47.953Z,6.70
2019-03-01T09:14:19.295Z,7.42
2019-03-01T09:16:50.660Z,7.25
2019-03-01T09:19:22.385Z,6.80
2019-03-01T09:21:54.976Z,6.50
2019-03-01T09:24:29.162Z,6.65
2019-03-01T09:26:59.330Z,7.26
2019-03-01T09:29:30.550Z,7.03
2019-03-01T09:32:01.773Z,7.31
2019-03-01T09:34:33.088Z,7.10
2019-03-01T09:37:04.469Z,6.87
2019-03-01T09:39:35.698Z,6.70
2019-03-01T09:42:06.885Z,6.45
2019-03-01T09:44:39.299Z,6.80
2019-03-01T09:47:10.761Z,6.71
2019-03-01T09:49:42.071Z,6.70
2019-03-01T09:52:13.317Z,6.31
2019-03-01T09:54:44.899Z,6.36
2019-03-01T09:57:16.509Z,6.60
2019-03-01T09:59:47.366Z,6.48
2019-03-01T10:02:18.458Z,6.60
2019-03-01T10:04:49.960Z,6.48
2019-03-01T10:07:21.223Z,6.17
2019-03-01T10:09:52.375Z,6.15
2019-03-01T10:12:23.743Z,5.90
2019-03-01T10:14:54.986Z,6.11
2019-03-01T10:17:26.316Z,6.20
2019-03-01T10:19:57.622Z,6.10
2019-03-01T10:22:39.243Z,6.51
2019-03-01T10:25:13.236Z,6.56
2019-03-01T10:27:44.454Z,6.31
2019-03-01T10:30:21.097Z,6.16
2019-03-01T10:32:52.358Z,5.92
2019-03-01T10:35:23.690Z,5.61
2019-03-01T10:37:54.982Z,5.52
2019-03-01T10:40:27.473Z,5.35
2019-03-01T10:42:58.692Z,5.19
2019-03-01T10:45:30.707Z,5.06
2019-03-01T10:48:01.888Z,5.07
2019-03-01T10:50:33.229Z,4.93
2019-03-01T10:53:04.603Z,4.99
2019-03-01T10:55:36.055Z,5.14
2019-03-01T10:58:07.304Z,5.17
2019-03-01T11:00:38.662Z,5.44
2019-03-01T11:03:10.024Z,5.40
2019-03-01T11:05:41.295Z,5.37
2019-03-01T11:08:12.558Z,5.23
2019-03-01T11:10:43.841Z,5.17
2019-03-01T11:13:18.300Z,5.09
2019-03-01T11:15:49.621Z,5.53
2019-03-01T11:18:20.939Z,6.01
2019-03-01T11:20:52.260Z,5.98
2019-03-01T11:23:23.562Z,6.38
2019-03-01T11:25:54.847Z,6.80
2019-03-01T11:28:26.124Z,7.14
2019-03-01T11:30:57.850Z,6.98
2019-03-01T11:33:29.084Z,6.12
2019-03-01T11:36:00.351Z,5.72
2019-03-01T11:38:31.635Z,5.58
2019-03-01T11:41:04.313Z,5.64
2019-03-01T11:43:36.607Z,5.56
2019-03-01T11:46:07.904Z,5.36
2019-03-01T11:48:39.176Z,5.46
2019-03-01T11:51:10.493Z,5.43
2019-03-01T11:53:42.185Z,5.41
2019-03-01T11:56:13.693Z,5.75
2019-03-01T11:58:44.902Z,5.41
2019-03-01T12:01:17.394Z,5.23
2019-03-01T12:03:49.209Z,5.34
2019-03-01T12:06:20.340Z,5.54
2019-03-01T12:08:51.571Z,6.14
2019-03-01T12:11:22.811Z,5.79
2019-03-01T12:13:54.197Z,5.87
2019-03-01T12:16:25.466Z,5.84
2019-03-01T12:18:56.674Z,5.81
2019-03-01T12:21:27.884Z,6.07
2019-03-01T12:23:59.209Z,5.75
2019-03-01T12:26:30.457Z,5.56
2019-03-01T12:29:01.661Z,5.23
2019-03-01T12:31:32.919Z,5.60
2019-03-01T12:34:04.173Z,5.66
2019-03-01T12:36:35.513Z,5.47
2019-03-01T12:39:07.498Z,5.37
2019-03-01T12:41:40.186Z,5.32
2019-03-01T12:44:11.439Z,5.16
2019-03-01T12:46:43.774Z,5.03
2019-03-01T12:49:14.981Z,5.10
2019-03-01T12:51:46.225Z,5.49
2019-03-01T12:54:17.708Z,5.53
2019-03-01T12:56:49.009Z,5.42
2019-03-01T12:59:20.280Z,5.37
2019-03-01T13:01:51.495Z,5.24
2019-03-01T13:04:22.783Z,5.07
2019-03-01T13:06:54.085Z,5.22
2019-03-01T13:09:26.472Z,5.09
2019-03-01T13:11:58.006Z,5.01
2019-03-01T13:14:29.360Z,5.18
2019-03-01T13:17:01.767Z,5.01
2019-03-01T13:19:34.040Z,4.84
2019-03-01T13:22:05.436Z,4.87
2019-03-01T13:24:36.829Z,4.95
2019-03-01T13:27:08.235Z,5.03
2019-03-01T13:29:39.501Z,4.83
2019-03-01T13:32:10.720Z,4.97
2019-03-01T13:34:41.979Z,4.95
2019-03-01T13:37:19.290Z,4.77
2019-03-01T13:39:48.603Z,5.02
2019-03-01T13:42:20.217Z,5.05
2019-03-01T13:44:51.432Z,4.98
2019-03-01T13:47:22.659Z,5.02
2019-03-01T13:49:53.993Z,4.84
2019-03-01T13:52:26.740Z,5.05
2019-03-01T13:54:59.222Z,5.00
2019-03-01T13:57:30.581Z,5.16
2019-03-01T14:00:03.200Z,5.14
2019-03-01T14:02:35.720Z,5.10
2019-03-01T14:05:08.834Z,4.94
2019-03-01T14:07:40.150Z,4.93
2019-03-01T14:10:13.922Z,4.97
2019-03-01T14:12:45.223Z,4.91
2019-03-01T14:15:17.958Z,4.87
2019-03-01T14:17:49.243Z,4.93
2019-03-01T14:20:22.622Z,4.72
2019-03-01T14:22:54.079Z,4.63
2019-03-01T14:25:25.489Z,4.85
2019-03-01T14:27:56.886Z,4.70
2019-03-01T14:30:30.277Z,4.80
2019-03-01T14:33:01.516Z,4.77
2019-03-01T14:35:32.953Z,4.70
2019-03-01T14:38:04.679Z,4.55
2019-03-01T14:40:36.085Z,4.70
2019-03-01T14:43:07.547Z,4.76
2019-03-01T14:45:41.729Z,4.57
2019-03-01T14:48:12.111Z,4.60
2019-03-01T14:50:43.518Z,4.56
2019-03-01T14:53:14.957Z,4.48
2019-03-01T14:55:58.955Z,4.60
2019-03-01T14:58:37.413Z,4.44
2019-03-01T15:01:27.703Z,4.51
2019-03-01T15:03:59.262Z,4.42
2019-03-01T15:06:30.711Z,4.57
2019-03-01T15:09:01.980Z,4.50
2019-03-01T15:11:34.894Z,4.37
2019-03-01T15:14:12.078Z,4.46
2019-03-01T15:16:43.370Z,4.67
2019-03-01T15:19:12.506Z,4.42
2019-03-01T15:21:43.979Z,4.39
2019-03-01T15:24:15.407Z,4.45
2019-03-01T15:26:46.814Z,4.45
2019-03-01T15:29:18.254Z,4.47
2019-03-01T15:31:51.099Z,4.43
2019-03-01T15:34:24.079Z,4.19
2019-03-01T15:36:56.803Z,4.48
2019-03-01T15:39:28.246Z,4.13
2019-03-01T15:41:59.629Z,4.11
2019-03-01T15:44:31.146Z,4.25
2019-03-01T15:47:02.548Z,4.29
2019-03-01T15:49:34.027Z,4.15
2019-03-01T15:52:05.426Z,4.17
2019-03-01T15:54:36.832Z,4.23
2019-03-01T15:57:08.405Z,4.43
2019-03-01T15:59:39.832Z,4.39
2019-03-01T16:02:11.210Z,4.29
2019-03-01T16:04:42.587Z,4.22
2019-03-01T16:07:14.064Z,4.34
2019-03-01T16:09:45.485Z,4.05
2019-03-01T16:12:16.945Z,4.13
2019-03-01T16:14:48.385Z,4.09
2019-03-01T16:17:24.350Z,4.20
2019-03-01T16:19:54.135Z,4.26
2019-03-01T16:22:25.696Z,4.08
2019-03-01T16:24:57.165Z,3.95
2019-03-01T16:27:28.603Z,3.91
2019-03-01T16:30:00.017Z,3.94
2019-03-01T16:32:31.468Z,3.96
2019-03-01T16:35:02.911Z,3.94
2019-03-01T16:37:34.325Z,3.87
2019-03-01T16:40:11.341Z,4.07
2019-03-01T16:42:42.946Z,3.94
2019-03-01T16:45:17.750Z,4.00
2019-03-01T16:47:48.707Z,4.01
2019-03-01T16:50:21.288Z,3.95
2019-03-01T16:52:52.683Z,3.79
2019-03-01T16:55:28.841Z,4.03
2019-03-01T16:58:06.770Z,3.97
2019-03-01T17:00:35.932Z,4.13
2019-03-01T17:03:09.273Z,3.79
2019-03-01T17:05:40.759Z,3.87
2019-03-01T17:08:12.202Z,3.93
2019-03-01T17:10:43.653Z,4.09
2019-03-01T17:13:15.096Z,3.88
2019-03-01T17:15:48.449Z,3.92
2019-03-01T17:18:19.653Z,4.14
2019-03-01T17:20:51.249Z,4.08
2019-03-01T17:23:23.366Z,3.89
2019-03-01T17:25:54.846Z,3.99
2019-03-01T17:28:27.810Z,4.01
2019-03-01T17:30:59.202Z,4.14
2019-03-01T17:33:31.668Z,4.12
2019-03-01T17:36:03.096Z,4.07
2019-03-01T17:38:34.417Z,4.13
2019-03-01T17:41:09.330Z,3.86
2019-03-01T17:43:39.032Z,3.84
2019-03-01T17:46:10.442Z,4.05
2019-03-01T17:48:41.778Z,3.96
2019-03-01T17:51:13.145Z,4.05
2019-03-01T17:53:46.426Z,4.21
2019-03-01T17:56:21.927Z,4.00
2019-03-01T17:58:51.977Z,4.02
2019-03-01T18:01:23.363Z,3.89
2019-03-01T18:03:57.994Z,4.02
2019-03-01T18:06:29.328Z,3.99
2019-03-01T18:09:00.781Z,3.82
2019-03-01T18:11:33.737Z,3.85
2019-03-01T18:14:05.115Z,4.08
2019-03-01T18:16:36.521Z,4.02
2019-03-01T18:19:07.900Z,3.99
2019-03-01T18:21:39.416Z,3.92
2019-03-01T18:24:11.101Z,3.90
2019-03-01T18:26:44.002Z,3.97
2019-03-01T18:29:15.506Z,3.98
2019-03-01T18:31:46.903Z,3.86
2019-03-01T18:34:18.337Z,3.94
2019-03-01T18:36:49.773Z,3.93
2019-03-01T18:39:21.576Z,3.98
2019-03-01T18:41:59.333Z,4.03
2019-03-01T18:44:30.798Z,4.01
2019-03-01T18:47:02.289Z,3.71
2019-03-01T18:49:33.621Z,3.84
2019-03-01T18:52:17.655Z,3.78
2019-03-01T18:54:49.766Z,4.19
2019-03-01T18:57:21.311Z,3.94
2019-03-01T18:59:52.537Z,3.88
2019-03-01T19:02:24.335Z,3.94
2019-03-01T19:04:56.794Z,3.93
2019-03-01T19:07:28.706Z,3.90
2019-03-01T19:10:01.281Z,3.87
2019-03-01T19:12:33.377Z,3.75
2019-03-01T19:15:06.808Z,3.83
2019-03-01T19:17:40.746Z,3.89
2019-03-01T19:20:13.906Z,3.73
2019-03-01T19:22:45.332Z,3.89
2019-03-01T19:25:16.830Z,3.96
2019-03-01T19:27:50.744Z,4.11
2019-03-01T19:30:24.377Z,3.78
2019-03-01T19:32:58.822Z,3.79
2019-03-01T19:35:30.136Z,3.93
2019-03-01T19:38:01.474Z,3.89
2019-03-01T19:40:37.293Z,3.84
2019-03-01T19:43:15.370Z,3.87
2019-03-01T19:45:47.852Z,3.90
2019-03-01T19:48:19.186Z,3.97
2019-03-01T19:50:50.819Z,3.75
2019-03-01T19:53:25.467Z,3.92
2019-03-01T19:55:55.245Z,3.82
2019-03-01T19:58:26.566Z,3.75
2019-03-01T20:00:57.986Z,3.78
2019-03-01T20:03:29.409Z,3.89
2019-03-01T20:06:00.795Z,3.77
2019-03-01T20:08:32.195Z,3.68
2019-03-01T20:11:03.528Z,3.79
2019-03-01T20:13:35.950Z,3.74
2019-03-01T20:16:07.240Z,4.02
2019-03-01T20:18:41.745Z,3.91
2019-03-01T20:21:11.664Z,3.90
2019-03-01T20:23:43.050Z,3.92
2019-03-01T20:26:14.408Z,3.86
2019-03-01T20:28:47.655Z,3.96
2019-03-01T20:31:18.634Z,3.64
2019-03-01T20:33:49.924Z,3.52
2019-03-01T20:36:21.134Z,3.69
2019-03-01T20:38:52.384Z,3.51
2019-03-01T20:41:23.674Z,3.48
2019-03-01T20:43:54.966Z,3.59
2019-03-01T20:46:26.301Z,3.56
2019-03-01T20:49:00.659Z,3.57
2019-03-01T20:51:32.083Z,3.47
2019-03-01T20:54:03.319Z,3.51
2019-03-01T20:56:34.618Z,3.55
2019-03-01T20:59:05.880Z,3.70
2019-03-01T21:01:38.181Z,3.71
2019-03-01T21:04:10.776Z,3.47
2019-03-01T21:06:42.023Z,3.48
2019-03-01T21:09:13.191Z,3.53
2019-03-01T21:11:44.502Z,3.59
2019-03-01T21:14:15.693Z,3.52
2019-03-01T21:16:47.067Z,3.37
2019-03-01T21:19:18.273Z,3.33
2019-03-01T21:21:49.595Z,3.50
2019-03-01T21:24:22.893Z,3.35
2019-03-01T21:26:53.826Z,3.23
2019-03-01T21:29:25.062Z,3.30
2019-03-01T21:31:56.350Z,3.19
2019-03-01T21:34:27.577Z,3.23
2019-03-01T21:37:02.342Z,3.19
2019-03-01T21:39:31.845Z,3.17
2019-03-01T21:42:03.070Z,3.29
2019-03-01T21:44:34.195Z,3.42
2019-03-01T21:47:06.969Z,3.36
2019-03-01T21:49:38.836Z,3.41
2019-03-01T21:52:10.149Z,3.34
2019-03-01T21:54:41.496Z,3.29
2019-03-01T21:57:12.987Z,3.16
2019-03-01T21:59:44.376Z,3.26
2019-03-01T22:02:17.069Z,2.96
2019-03-01T22:04:48.880Z,3.14
2019-03-01T22:07:21.569Z,3.22
2019-03-01T22:09:52.979Z,3.10
2019-03-01T22:12:24.714Z,3.10
2019-03-01T22:14:56.933Z,3.10
2019-03-01T22:17:28.213Z,3.11
2019-03-01T22:19:59.539Z,3.04
2019-03-01T22:22:30.857Z,3.07
2019-03-01T22:25:03.269Z,2.91
2019-03-01T22:27:34.906Z,2.88
2019-03-01T22:30:12.261Z,3.01
2019-03-01T22:32:45.444Z,3.09
2019-03-01T22:35:16.760Z,2.88
2019-03-01T22:37:48.193Z,2.89
2019-03-01T22:40:19.575Z,2.99
2019-03-01T22:42:51.181Z,2.93
2019-03-01T22:45:22.617Z,3.17
2019-03-01T22:47:53.966Z,2.91
2019-03-01T22:50:25.351Z,2.91
2019-03-01T22:52:56.733Z,2.85
2019-03-01T22:55:28.102Z,2.96
2019-03-01T22:58:00.869Z,2.76
2019-03-01T23:00:57.937Z,2.99
2019-03-01T23:03:28.634Z,2.85
2019-03-01T23:06:00.030Z,3.04
2019-03-01T23:08:31.704Z,3.05
2019-03-01T23:11:04.449Z,3.03
2019-03-01T23:13:35.860Z,2.84
2019-03-01T23:16:07.269Z,3.03
2019-03-01T23:18:40.549Z,2.93
2019-03-01T23:21:11.779Z,3.08
2019-03-01T23:23:43.173Z,3.07
2019-03-01T23:26:14.533Z,2.93
2019-03-01T23:28:45.836Z,3.05
2019-03-01T23:31:18.255Z,2.84
2019-03-01T23:33:49.561Z,2.77
2019-03-01T23:36:20.919Z,2.82
2019-03-01T23:38:52.518Z,2.79
2019-03-01T23:41:23.953Z,2.81
2019-03-01T23:43:55.292Z,2.67
2019-03-01T23:46:28.562Z,2.85
2019-03-01T23:49:06.273Z,2.87
2019-03-01T23:51:33.736Z,2.74
2019-03-01T23:54:05.655Z,2.73
2019-03-01T23:56:38.832Z,2.74
2019-03-01T23:59:10.255Z,2.65
